sensor_id;sensor_type;location;lat;lon;timestamp;pressure;altitude;pressure_sealevel;temperature;humidity
33265;BME280;31404;53.974;-1.086;2023-02-13T00:00:38;103458.16;;;5.63;84.05
33265;BME280;31404;53.974;-1.086;2023-02-13T00:05:39;103456.00;;;5.88;80.77
33265;BME280;31404;53.974;-1.086;2023-02-13T00:10:37;103461.00;;;4.81;85.45
33265;BME280;31404;53.974;-1.086;2023-02-13T00:15:37;103454.65;;;3.77;90.79
33265;BME280;31404;53.974;-1.086;2023-02-13T00:20:38;103455.00;;;4.47;88.62
33265;BME280;31404;53.974;-1.086;2023-02-13T00:25:39;103448.67;;;5.12;85.05
33265;BME280;31404;53.974;-1.086;2023-02-13T00:30:38;103448.95;;;5.88;81.06
33265;BME280;31404;53.974;-1.086;2023-02-13T00:35:38;103456.44;;;5.02;85.90
33265;BME280;31404;53.974;-1.086;2023-02-13T00:40:39;103447.52;;;5.89;80.83
33265;BME280;31404;53.974;-1.086;2023-02-13T00:45:37;103449.54;;;5.35;84.00
33265;BME280;31404;53.974;-1.086;2023-02-13T00:50:38;103455.00;;;4.81;86.28
33265;BME280;31404;53.974;-1.086;2023-02-13T00:55:38;103452.88;;;4.59;86.36
33265;BME280;31404;53.974;-1.086;2023-02-13T01:00:39;103449.97;;;5.20;82.66
33265;BME280;31404;53.974;-1.086;2023-02-13T01:05:40;103461.66;;;4.03;88.52
33265;BME280;31404;53.974;-1.086;2023-02-13T01:10:36;103462.24;;;5.06;83.50
33265;BME280;31404;53.974;-1.086;2023-02-13T01:15:40;103454.93;;;5.73;80.91
33265;BME280;31404;53.974;-1.086;2023-02-13T01:20:39;103452.17;;;4.87;85.32
33265;BME280;31404;53.974;-1.086;2023-02-13T01:25:39;103434.79;;;6.39;77.77
33265;BME280;31404;53.974;-1.086;2023-02-13T01:30:38;103434.40;;;6.41;76.62
33265;BME280;31404;53.974;-1.086;2023-02-13T01:35:38;103442.71;;;6.56;76.29
33265;BME280;31404;53.974;-1.086;2023-02-13T01:40:34;103435.02;;;6.87;74.84
33265;BME280;31404;53.974;-1.086;2023-02-13T01:45:39;103436.02;;;7.03;75.60
33265;BME280;31404;53.974;-1.086;2023-02-13T01:50:42;103435.69;;;8.06;71.15
33265;BME280;31404;53.974;-1.086;2023-02-13T01:55:37;103433.06;;;6.52;75.96
33265;BME280;31404;53.974;-1.086;2023-02-13T02:00:34;103425.02;;;6.88;75.39
33265;BME280;31404;53.974;-1.086;2023-02-13T02:05:39;103420.83;;;6.42;76.54
33265;BME280;31404;53.974;-1.086;2023-02-13T02:10:34;103411.98;;;8.04;71.99
33265;BME280;31404;53.974;-1.086;2023-02-13T02:15:40;103410.07;;;7.37;73.64
33265;BME280;31404;53.974;-1.086;2023-02-13T02:40:45;103391.58;;;7.33;74.24
33265;BME280;31404;53.974;-1.086;2023-02-13T02:55:45;103373.67;;;6.39;78.49
33265;BME280;31404;53.974;-1.086;2023-02-13T03:00:41;103372.49;;;6.97;75.00
33265;BME280;31404;53.974;-1.086;2023-02-13T03:05:39;103368.66;;;6.88;74.12
33265;BME280;31404;53.974;-1.086;2023-02-13T03:10:39;103366.37;;;8.42;70.12
33265;BME280;31404;53.974;-1.086;2023-02-13T03:15:41;103366.37;;;7.75;72.50
33265;BME280;31404;53.974;-1.086;2023-02-13T03:45:43;103358.94;;;5.72;81.50
33265;BME280;31404;53.974;-1.086;2023-02-13T03:55:37;103352.62;;;7.27;74.80
33265;BME280;31404;53.974;-1.086;2023-02-13T04:00:41;103350.42;;;6.66;76.97
33265;BME280;31404;53.974;-1.086;2023-02-13T04:05:41;103346.85;;;7.40;73.94
33265;BME280;31404;53.974;-1.086;2023-02-13T04:15:42;103343.14;;;6.65;77.08
33265;BME280;31404;53.974;-1.086;2023-02-13T04:20:39;103335.27;;;6.75;76.17
33265;BME280;31404;53.974;-1.086;2023-02-13T04:25:40;103331.79;;;6.97;75.73
33265;BME280;31404;53.974;-1.086;2023-02-13T04:30:38;103329.61;;;6.82;76.58
33265;BME280;31404;53.974;-1.086;2023-02-13T04:35:35;103332.09;;;7.77;71.28
33265;BME280;31404;53.974;-1.086;2023-02-13T04:40:39;103334.68;;;6.33;76.84
33265;BME280;31404;53.974;-1.086;2023-02-13T04:45:39;103333.89;;;6.14;80.18
33265;BME280;31404;53.974;-1.086;2023-02-13T04:50:38;103339.02;;;4.12;89.10
33265;BME280;31404;53.974;-1.086;2023-02-13T04:55:39;103325.80;;;6.06;81.46
33265;BME280;31404;53.974;-1.086;2023-02-13T05:00:39;103326.30;;;7.30;74.38
33265;BME280;31404;53.974;-1.086;2023-02-13T05:05:39;103319.83;;;6.38;79.58
33265;BME280;31404;53.974;-1.086;2023-02-13T05:10:38;103314.88;;;6.80;76.11
33265;BME280;31404;53.974;-1.086;2023-02-13T05:15:38;103322.97;;;8.28;72.12
33265;BME280;31404;53.974;-1.086;2023-02-13T05:20:39;103319.40;;;6.67;77.21
33265;BME280;31404;53.974;-1.086;2023-02-13T05:25:40;103319.88;;;6.39;78.08
33265;BME280;31404;53.974;-1.086;2023-02-13T05:30:38;103320.84;;;7.29;74.26
33265;BME280;31404;53.974;-1.086;2023-02-13T05:35:39;103318.94;;;7.24;75.17
33265;BME280;31404;53.974;-1.086;2023-02-13T05:40:35;103316.32;;;7.28;73.90
33265;BME280;31404;53.974;-1.086;2023-02-13T05:45:39;103314.35;;;7.16;73.82
33265;BME280;31404;53.974;-1.086;2023-02-13T05:50:34;103314.72;;;7.71;73.02
33265;BME280;31404;53.974;-1.086;2023-02-13T05:55:34;103310.00;;;7.98;72.10
33265;BME280;31404;53.974;-1.086;2023-02-13T06:00:38;103316.37;;;7.59;74.12
33265;BME280;31404;53.974;-1.086;2023-02-13T06:05:35;103319.97;;;6.62;76.75
33265;BME280;31404;53.974;-1.086;2023-02-13T06:10:39;103329.40;;;5.57;81.50
33265;BME280;31404;53.974;-1.086;2023-02-13T06:15:38;103328.08;;;6.25;78.61
33265;BME280;31404;53.974;-1.086;2023-02-13T06:20:35;103328.31;;;6.76;76.93
33265;BME280;31404;53.974;-1.086;2023-02-13T06:25:37;103327.64;;;6.47;77.83
33265;BME280;31404;53.974;-1.086;2023-02-13T06:30:39;103324.98;;;6.02;79.47
33265;BME280;31404;53.974;-1.086;2023-02-13T06:35:35;103321.12;;;6.01;78.63
33265;BME280;31404;53.974;-1.086;2023-02-13T06:40:39;103327.34;;;4.17;84.03
33265;BME280;31404;53.974;-1.086;2023-02-13T06:45:35;103323.83;;;5.18;82.29
33265;BME280;31404;53.974;-1.086;2023-02-13T06:50:34;103328.56;;;4.46;84.16
33265;BME280;31404;53.974;-1.086;2023-02-13T06:55:35;103325.97;;;4.56;85.63
33265;BME280;31404;53.974;-1.086;2023-02-13T07:00:39;103322.83;;;5.99;78.35
33265;BME280;31404;53.974;-1.086;2023-02-13T07:05:39;103331.50;;;4.87;81.73
33265;BME280;31404;53.974;-1.086;2023-02-13T07:10:38;103327.03;;;5.78;79.29
33265;BME280;31404;53.974;-1.086;2023-02-13T07:15:35;103326.21;;;6.24;77.84
33265;BME280;31404;53.974;-1.086;2023-02-13T07:20:39;103329.35;;;5.73;79.32
33265;BME280;31404;53.974;-1.086;2023-02-13T07:25:38;103322.77;;;6.32;75.57
33265;BME280;31404;53.974;-1.086;2023-02-13T07:30:38;103334.32;;;5.35;81.39
33265;BME280;31404;53.974;-1.086;2023-02-13T07:35:39;103328.55;;;6.70;76.75
33265;BME280;31404;53.974;-1.086;2023-02-13T07:40:37;103336.66;;;6.37;76.17
33265;BME280;31404;53.974;-1.086;2023-02-13T07:45:38;103338.90;;;6.62;76.73
33265;BME280;31404;53.974;-1.086;2023-02-13T07:50:38;103338.87;;;6.34;76.54
33265;BME280;31404;53.974;-1.086;2023-02-13T07:55:39;103337.17;;;5.90;80.46
33265;BME280;31404;53.974;-1.086;2023-02-13T08:00:38;103332.90;;;7.27;74.83
33265;BME280;31404;53.974;-1.086;2023-02-13T08:05:38;103335.88;;;6.41;76.79
33265;BME280;31404;53.974;-1.086;2023-02-13T08:10:39;103333.66;;;6.76;76.21
33265;BME280;31404;53.974;-1.086;2023-02-13T08:15:38;103331.31;;;6.38;77.84
33265;BME280;31404;53.974;-1.086;2023-02-13T08:20:38;103327.79;;;6.03;79.73
33265;BME280;31404;53.974;-1.086;2023-02-13T08:25:39;103323.21;;;5.43;81.86
33265;BME280;31404;53.974;-1.086;2023-02-13T08:30:39;103323.71;;;6.02;79.38
33265;BME280;31404;53.974;-1.086;2023-02-13T08:35:38;103326.58;;;5.95;81.04
33265;BME280;31404;53.974;-1.086;2023-02-13T08:40:39;103327.71;;;5.07;82.70
33265;BME280;31404;53.974;-1.086;2023-02-13T08:45:38;103325.62;;;6.14;79.48
33265;BME280;31404;53.974;-1.086;2023-02-13T08:50:38;103321.21;;;6.40;78.58
33265;BME280;31404;53.974;-1.086;2023-02-13T08:55:38;103328.89;;;3.81;89.97
33265;BME280;31404;53.974;-1.086;2023-02-13T09:00:40;103323.02;;;5.26;83.73
33265;BME280;31404;53.974;-1.086;2023-02-13T09:05:35;103321.33;;;4.23;88.83
33265;BME280;31404;53.974;-1.086;2023-02-13T09:10:41;103316.12;;;5.74;82.35
33265;BME280;31404;53.974;-1.086;2023-02-13T09:15:39;103310.89;;;6.56;78.52
33265;BME280;31404;53.974;-1.086;2023-02-13T09:20:39;103310.98;;;7.48;74.58
33265;BME280;31404;53.974;-1.086;2023-02-13T09:25:38;103310.48;;;6.04;83.04
33265;BME280;31404;53.974;-1.086;2023-02-13T09:30:39;103316.50;;;5.49;82.52
33265;BME280;31404;53.974;-1.086;2023-02-13T09:35:37;103327.21;;;7.50;75.10
33265;BME280;31404;53.974;-1.086;2023-02-13T09:45:38;103333.31;;;5.73;82.60
33265;BME280;31404;53.974;-1.086;2023-02-13T09:50:34;103342.63;;;5.86;82.49
33265;BME280;31404;53.974;-1.086;2023-02-13T10:00:42;103343.77;;;6.41;81.32
33265;BME280;31404;53.974;-1.086;2023-02-13T10:05:45;103338.00;;;5.70;82.93
33265;BME280;31404;53.974;-1.086;2023-02-13T10:15:41;103327.14;;;5.88;82.04
33265;BME280;31404;53.974;-1.086;2023-02-13T10:20:42;103328.79;;;5.92;82.58
33265;BME280;31404;53.974;-1.086;2023-02-13T10:35:38;103322.79;;;4.70;91.30
33265;BME280;31404;53.974;-1.086;2023-02-13T10:40:39;103325.53;;;4.69;91.90
33265;BME280;31404;53.974;-1.086;2023-02-13T11:00:42;103318.68;;;5.30;89.28
33265;BME280;31404;53.974;-1.086;2023-02-13T11:05:39;103311.48;;;5.90;85.67
33265;BME280;31404;53.974;-1.086;2023-02-13T11:10:43;103312.74;;;6.03;84.67
33265;BME280;31404;53.974;-1.086;2023-02-13T11:15:39;103307.87;;;6.34;83.45
33265;BME280;31404;53.974;-1.086;2023-02-13T11:20:41;103317.66;;;5.66;87.41
33265;BME280;31404;53.974;-1.086;2023-02-13T11:25:38;103315.30;;;6.20;86.27
33265;BME280;31404;53.974;-1.086;2023-02-13T11:30:39;103306.44;;;5.26;89.65
33265;BME280;31404;53.974;-1.086;2023-02-13T11:35:37;103289.09;;;5.99;85.99
33265;BME280;31404;53.974;-1.086;2023-02-13T11:40:40;103284.12;;;6.45;84.51
33265;BME280;31404;53.974;-1.086;2023-02-13T11:45:37;103270.47;;;6.51;86.19
33265;BME280;31404;53.974;-1.086;2023-02-13T11:50:51;103260.96;;;5.78;84.06
33265;BME280;31404;53.974;-1.086;2023-02-13T11:55:39;103261.24;;;4.44;94.04
33265;BME280;31404;53.974;-1.086;2023-02-13T12:00:41;103247.61;;;6.41;86.33
33265;BME280;31404;53.974;-1.086;2023-02-13T12:05:38;103248.30;;;5.63;89.48
33265;BME280;31404;53.974;-1.086;2023-02-13T12:10:37;103258.29;;;4.81;95.08
33265;BME280;31404;53.974;-1.086;2023-02-13T12:15:39;103259.34;;;5.05;92.69
33265;BME280;31404;53.974;-1.086;2023-02-13T12:45:40;103243.18;;;4.39;99.62
33265;BME280;31404;53.974;-1.086;2023-02-13T13:10:46;103214.01;;;6.18;91.15
33265;BME280;31404;53.974;-1.086;2023-02-13T13:15:41;103205.80;;;6.14;88.29
33265;BME280;31404;53.974;-1.086;2023-02-13T13:30:38;103187.32;;;6.42;86.36
33265;BME280;31404;53.974;-1.086;2023-02-13T13:35:41;103189.46;;;6.21;87.05
33265;BME280;31404;53.974;-1.086;2023-02-13T13:50:39;103169.45;;;5.71;89.13
33265;BME280;31404;53.974;-1.086;2023-02-13T14:00:40;103164.38;;;4.92;93.28
33265;BME280;31404;53.974;-1.086;2023-02-13T14:20:41;103147.60;;;6.32;87.77
33265;BME280;31404;53.974;-1.086;2023-02-13T14:25:38;103152.78;;;6.44;86.86
33265;BME280;31404;53.974;-1.086;2023-02-13T14:30:39;103146.22;;;7.19;82.30
33265;BME280;31404;53.974;-1.086;2023-02-13T14:35:39;103142.67;;;7.93;79.16
33265;BME280;31404;53.974;-1.086;2023-02-13T14:55:41;103147.24;;;7.02;96.90
33265;BME280;31404;53.974;-1.086;2023-02-13T15:05:38;103143.79;;;5.97;85.46
33265;BME280;31404;53.974;-1.086;2023-02-13T15:10:42;103146.39;;;6.08;84.89
33265;BME280;31404;53.974;-1.086;2023-02-13T15:15:38;103142.39;;;5.72;87.76
33265;BME280;31404;53.974;-1.086;2023-02-13T15:20:40;103137.41;;;5.19;90.52
33265;BME280;31404;53.974;-1.086;2023-02-13T15:25:39;103137.38;;;6.01;87.12
33265;BME280;31404;53.974;-1.086;2023-02-13T15:30:38;103130.81;;;6.16;86.74
33265;BME280;31404;53.974;-1.086;2023-02-13T15:35:37;103131.75;;;6.27;86.20
33265;BME280;31404;53.974;-1.086;2023-02-13T15:40:41;103132.75;;;6.85;83.90
33265;BME280;31404;53.974;-1.086;2023-02-13T15:55:38;103113.94;;;8.13;78.35
33265;BME280;31404;53.974;-1.086;2023-02-13T16:00:40;103119.06;;;6.98;82.13
33265;BME280;31404;53.974;-1.086;2023-02-13T16:05:38;103115.96;;;7.89;78.44
33265;BME280;31404;53.974;-1.086;2023-02-13T16:10:37;103116.70;;;8.94;74.16
33265;BME280;31404;53.974;-1.086;2023-02-13T16:20:40;103124.21;;;4.93;91.57
33265;BME280;31404;53.974;-1.086;2023-02-13T16:25:38;103123.50;;;5.86;87.70
33265;BME280;31404;53.974;-1.086;2023-02-13T16:30:41;103120.42;;;6.81;82.77
33265;BME280;31404;53.974;-1.086;2023-02-13T16:35:40;103121.24;;;6.74;82.24
33265;BME280;31404;53.974;-1.086;2023-02-13T16:40:40;103119.98;;;7.95;77.10
33265;BME280;31404;53.974;-1.086;2023-02-13T16:45:38;103112.55;;;7.65;77.31
33265;BME280;31404;53.974;-1.086;2023-02-13T16:50:39;103112.93;;;5.45;88.56
33265;BME280;31404;53.974;-1.086;2023-02-13T16:55:38;103115.35;;;6.64;83.66
33265;BME280;31404;53.974;-1.086;2023-02-13T17:00:39;103108.12;;;5.99;87.70
33265;BME280;31404;53.974;-1.086;2023-02-13T17:05:38;103105.29;;;5.59;88.14
33265;BME280;31404;53.974;-1.086;2023-02-13T17:10:40;103109.07;;;6.08;86.35
33265;BME280;31404;53.974;-1.086;2023-02-13T17:15:41;103108.53;;;6.45;81.16
33265;BME280;31404;53.974;-1.086;2023-02-13T17:20:40;103101.89;;;5.73;88.32
33265;BME280;31404;53.974;-1.086;2023-02-13T17:25:37;103099.55;;;5.94;86.53
33265;BME280;31404;53.974;-1.086;2023-02-13T17:30:39;103103.01;;;5.19;90.08
33265;BME280;31404;53.974;-1.086;2023-02-13T17:35:37;103111.67;;;6.70;81.14
33265;BME280;31404;53.974;-1.086;2023-02-13T17:40:40;103108.73;;;6.73;82.88
33265;BME280;31404;53.974;-1.086;2023-02-13T17:45:39;103112.53;;;5.99;87.56
33265;BME280;31404;53.974;-1.086;2023-02-13T17:50:39;103115.29;;;5.85;86.53
33265;BME280;31404;53.974;-1.086;2023-02-13T17:55:38;103115.39;;;6.12;83.79
33265;BME280;31404;53.974;-1.086;2023-02-13T18:00:38;103113.79;;;5.54;88.86
33265;BME280;31404;53.974;-1.086;2023-02-13T18:05:38;103111.26;;;6.11;86.48
33265;BME280;31404;53.974;-1.086;2023-02-13T18:10:39;103113.50;;;5.59;88.89
33265;BME280;31404;53.974;-1.086;2023-02-13T18:15:40;103114.60;;;6.17;85.84
33265;BME280;31404;53.974;-1.086;2023-02-13T18:20:39;103118.49;;;6.31;82.80
33265;BME280;31404;53.974;-1.086;2023-02-13T18:25:39;103108.97;;;6.83;80.25
33265;BME280;31404;53.974;-1.086;2023-02-13T18:30:36;103102.18;;;5.23;92.28
33265;BME280;31404;53.974;-1.086;2023-02-13T18:35:37;103101.43;;;5.62;87.69
33265;BME280;31404;53.974;-1.086;2023-02-13T18:40:38;103102.03;;;4.95;90.52
33265;BME280;31404;53.974;-1.086;2023-02-13T18:45:39;103107.76;;;5.41;87.28
33265;BME280;31404;53.974;-1.086;2023-02-13T18:50:38;103114.36;;;4.85;89.03
33265;BME280;31404;53.974;-1.086;2023-02-13T18:55:38;103118.26;;;5.07;90.67
33265;BME280;31404;53.974;-1.086;2023-02-13T19:00:39;103121.18;;;4.92;89.50
33265;BME280;31404;53.974;-1.086;2023-02-13T19:05:39;103123.39;;;5.00;90.40
33265;BME280;31404;53.974;-1.086;2023-02-13T19:10:38;103117.77;;;4.85;90.84
33265;BME280;31404;53.974;-1.086;2023-02-13T19:15:39;103114.07;;;5.20;88.69
33265;BME280;31404;53.974;-1.086;2023-02-13T19:20:37;103108.04;;;5.63;85.95
33265;BME280;31404;53.974;-1.086;2023-02-13T19:25:37;103110.07;;;5.00;86.54
33265;BME280;31404;53.974;-1.086;2023-02-13T19:30:39;103106.02;;;4.09;93.71
33265;BME280;31404;53.974;-1.086;2023-02-13T19:35:38;103106.55;;;3.47;98.27
33265;BME280;31404;53.974;-1.086;2023-02-13T19:40:39;103100.64;;;4.56;90.78
33265;BME280;31404;53.974;-1.086;2023-02-13T19:45:37;103101.67;;;4.49;90.32
33265;BME280;31404;53.974;-1.086;2023-02-13T19:50:38;103094.42;;;4.07;93.93
33265;BME280;31404;53.974;-1.086;2023-02-13T19:55:39;103087.52;;;4.00;92.23
33265;BME280;31404;53.974;-1.086;2023-02-13T20:00:38;103091.83;;;3.55;95.52
33265;BME280;31404;53.974;-1.086;2023-02-13T20:05:39;103090.56;;;4.47;92.39
33265;BME280;31404;53.974;-1.086;2023-02-13T20:10:36;103092.21;;;4.49;92.60
33265;BME280;31404;53.974;-1.086;2023-02-13T20:15:39;103091.50;;;3.12;100.00
33265;BME280;31404;53.974;-1.086;2023-02-13T20:20:39;103090.36;;;4.09;95.92
33265;BME280;31404;53.974;-1.086;2023-02-13T20:25:40;103088.60;;;3.79;96.29
33265;BME280;31404;53.974;-1.086;2023-02-13T20:30:39;103091.96;;;3.48;96.63
33265;BME280;31404;53.974;-1.086;2023-02-13T20:35:39;103090.11;;;3.53;97.90
33265;BME280;31404;53.974;-1.086;2023-02-13T20:40:38;103088.65;;;4.08;95.22
33265;BME280;31404;53.974;-1.086;2023-02-13T20:45:39;103093.05;;;3.68;99.19
33265;BME280;31404;53.974;-1.086;2023-02-13T20:50:35;103085.87;;;4.41;94.64
33265;BME280;31404;53.974;-1.086;2023-02-13T20:55:39;103081.76;;;3.33;98.62
33265;BME280;31404;53.974;-1.086;2023-02-13T21:00:40;103081.41;;;3.58;97.85
33265;BME280;31404;53.974;-1.086;2023-02-13T21:05:40;103081.23;;;4.96;91.76
33265;BME280;31404;53.974;-1.086;2023-02-13T21:10:38;103077.38;;;4.99;91.56
33265;BME280;31404;53.974;-1.086;2023-02-13T21:15:38;103075.12;;;4.57;91.48
33265;BME280;31404;53.974;-1.086;2023-02-13T21:20:38;103076.29;;;3.55;95.50
33265;BME280;31404;53.974;-1.086;2023-02-13T21:25:37;103077.48;;;4.02;92.62
33265;BME280;31404;53.974;-1.086;2023-02-13T21:30:38;103077.22;;;4.70;87.70
33265;BME280;31404;53.974;-1.086;2023-02-13T21:35:38;103073.52;;;5.55;84.75
33265;BME280;31404;53.974;-1.086;2023-02-13T21:40:38;103072.00;;;6.31;81.75
33265;BME280;31404;53.974;-1.086;2023-02-13T21:45:36;103074.57;;;5.00;86.13
33265;BME280;31404;53.974;-1.086;2023-02-13T21:50:38;103079.86;;;5.84;82.33
33265;BME280;31404;53.974;-1.086;2023-02-13T21:55:37;103080.18;;;5.74;81.71
33265;BME280;31404;53.974;-1.086;2023-02-13T22:00:37;103075.70;;;5.77;79.75
33265;BME280;31404;53.974;-1.086;2023-02-13T22:10:39;103064.14;;;5.21;84.67
33265;BME280;31404;53.974;-1.086;2023-02-13T22:15:39;103069.89;;;5.35;84.16
33265;BME280;31404;53.974;-1.086;2023-02-13T22:20:38;103071.75;;;5.37;81.71
33265;BME280;31404;53.974;-1.086;2023-02-13T22:25:38;103071.53;;;4.49;85.90
33265;BME280;31404;53.974;-1.086;2023-02-13T22:30:38;103069.16;;;5.72;80.73
33265;BME280;31404;53.974;-1.086;2023-02-13T22:35:39;103062.49;;;5.60;78.62
33265;BME280;31404;53.974;-1.086;2023-02-13T22:40:38;103059.09;;;5.54;80.78
33265;BME280;31404;53.974;-1.086;2023-02-13T22:45:37;103062.72;;;3.77;89.43
33265;BME280;31404;53.974;-1.086;2023-02-13T22:50:38;103062.20;;;5.47;82.85
33265;BME280;31404;53.974;-1.086;2023-02-13T22:55:39;103062.31;;;4.87;83.91
33265;BME280;31404;53.974;-1.086;2023-02-13T23:00:40;103060.11;;;5.24;83.24
33265;BME280;31404;53.974;-1.086;2023-02-13T23:05:38;103057.77;;;5.94;80.72
33265;BME280;31404;53.974;-1.086;2023-02-13T23:10:39;103048.98;;;4.99;84.80
33265;BME280;31404;53.974;-1.086;2023-02-13T23:15:37;103055.90;;;3.92;86.06
33265;BME280;31404;53.974;-1.086;2023-02-13T23:20:38;103047.88;;;5.26;84.38
33265;BME280;31404;53.974;-1.086;2023-02-13T23:25:38;103047.33;;;4.41;86.13
33265;BME280;31404;53.974;-1.086;2023-02-13T23:30:39;103046.24;;;4.83;83.96
33265;BME280;31404;53.974;-1.086;2023-02-13T23:35:38;103042.96;;;5.53;83.27
33265;BME280;31404;53.974;-1.086;2023-02-13T23:40:38;103040.41;;;5.71;82.95
33265;BME280;31404;53.974;-1.086;2023-02-13T23:45:37;103046.48;;;6.01;81.59
33265;BME280;31404;53.974;-1.086;2023-02-13T23:50:38;103039.85;;;5.25;82.80
33265;BME280;31404;53.974;-1.086;2023-02-13T23:55:39;103041.49;;;4.06;87.98
